Time;durP1;ratioP1;P1;durP2;ratioP2;P2;SDS_P1;SDS_P2;PMS_P1;PMS_P2;Temp;Humidity;BMP_temperature;BMP_pressure;BME280_temperature;BME280_humidity;BME280_pressure;Samples;Min_cycle;Max_cycle;Signal;HPM_P1;HPM_P2
2022/10/13 00:00:02;;;;;;;;;;;23.20;59.00;;;;;;1587411;74;747;-53
2022/10/13 00:02:04;;;;;;;;;;;23.10;59.20;;;;;;1587793;74;1523;-57
2022/10/13 00:04:06;;;;;;;;;;;23.10;59.20;;;;;;1569897;74;1940;-57
2022/10/13 00:06:09;;;;;;;;;;;23.10;59.30;;;;;;1567876;74;1226;-56
2022/10/13 00:08:11;;;;;;;;;;;23.10;59.30;;;;;;1576580;74;708;-57
2022/10/13 00:10:13;;;;;;;;;;;23.10;59.30;;;;;;1578817;74;746;-57
2022/10/13 00:12:15;;;;;;;;;;;23.00;59.30;;;;;;1575522;74;732;-57
2022/10/13 00:14:17;;;;;;;;;;;23.00;59.30;;;;;;1574627;74;974;-57
2022/10/13 00:16:19;;;;;;;;;;;23.10;59.40;;;;;;1573614;74;1513;-56
2022/10/13 00:18:21;;;;;;;;;;;23.10;59.50;;;;;;1584039;74;809;-56
2022/10/13 00:20:23;;;;;;;;;;;23.10;59.30;;;;;;1582752;74;721;-57
2022/10/13 00:22:25;;;;;;;;;;;23.10;59.30;;;;;;1581181;74;673;-55
2022/10/13 00:24:26;;;;;;;;;;;23.10;59.30;;;;;;1548757;76;1933;-55
2022/10/13 00:26:28;;;;;;;;;;;23.10;59.40;;;;;;1580649;74;1116;-53
2022/10/13 00:28:30;;;;;;;;;;;23.10;59.40;;;;;;1579582;74;728;-57
2022/10/13 00:30:35;;;;;;;;;;;23.10;59.20;;;;;;1571453;74;1504;-57
2022/10/13 00:32:37;;;;;;;;;;;23.10;59.20;;;;;;1571033;74;721;-53
2022/10/13 00:34:39;;;;;;;;;;;23.10;59.30;;;;;;1585845;74;715;-57
2022/10/13 00:36:41;;;;;;;;;;;23.10;59.20;;;;;;1569179;74;739;-54
2022/10/13 00:38:43;;;;;;;;;;;23.10;59.20;;;;;;1590152;74;815;-57
2022/10/13 00:40:52;;;;;;;;;;;23.10;59.30;;;;;;1585400;74;939;-57
2022/10/13 00:42:54;;;;;;;;;;;23.10;59.30;;;;;;1584108;74;779;-53
2022/10/13 00:45:00;;;;;;;;;;;23.10;59.20;;;;;;1575118;74;1925;-55
2022/10/13 00:47:02;;;;;;;;;;;23.10;59.30;;;;;;1580832;74;1865;-53
2022/10/13 00:49:05;;;;;;;;;;;23.00;59.30;;;;;;1565267;74;780;-56
2022/10/13 00:51:07;;;;;;;;;;;23.10;59.40;;;;;;1579520;74;761;-53
2022/10/13 00:53:09;;;;;;;;;;;23.10;59.40;;;;;;1586725;74;790;-55
2022/10/13 00:55:11;;;;;;;;;;;23.10;59.40;;;;;;1587179;74;1151;-53
2022/10/13 00:57:13;;;;;;;;;;;23.10;59.40;;;;;;1574736;74;744;-57
2022/10/13 00:59:21;;;;;;;;;;;23.10;59.30;;;;;;1582998;74;1349;-57
2022/10/13 01:01:20;;;;;;;;;;;23.10;59.40;;;;;;1586554;74;1598;-56
2022/10/13 01:03:22;;;;;;;;;;;23.00;59.40;;;;;;1587411;74;1937;-56
2022/10/13 01:05:24;;;;;;;;;;;23.10;59.60;;;;;;1571358;74;1149;-55
2022/10/13 01:07:26;;;;;;;;;;;23.10;59.60;;;;;;1578994;74;718;-55
2022/10/13 01:09:34;;;;;;;;;;;23.00;59.40;;;;;;1580121;74;727;-57
2022/10/13 01:11:49;;;;;;;;;;;23.00;59.40;;;;;;1579061;74;1641;-57
2022/10/13 01:13:53;;;;;;;;;;;23.00;59.50;;;;;;1575373;74;1546;-57
2022/10/13 01:15:56;;;;;;;;;;;23.00;59.60;;;;;;1581198;74;1955;-56
2022/10/13 01:18:00;;;;;;;;;;;23.00;59.60;;;;;;1587016;74;786;-57
2022/10/13 01:20:06;;;;;;;;;;;23.00;59.50;;;;;;1590206;74;2006;-57
2022/10/13 01:22:10;;;;;;;;;;;23.10;59.50;;;;;;1580105;74;855;-55
2022/10/13 01:24:13;;;;;;;;;;;23.00;59.30;;;;;;1579889;74;2211;-56
2022/10/13 01:26:33;;;;;;;;;;;23.00;59.40;;;;;;1582432;74;1192;-56
2022/10/13 01:28:37;;;;;;;;;;;23.00;59.40;;;;;;1581908;74;735;-57
2022/10/13 01:30:40;;;;;;;;;;;23.00;59.30;;;;;;1579768;74;1149;-56
2022/10/13 01:32:53;;;;;;;;;;;23.10;59.30;;;;;;1581512;74;791;-54
2022/10/13 01:35:11;;;;;;;;;;;23.00;59.20;;;;;;1586589;74;1120;-55
2022/10/13 01:37:23;;;;;;;;;;;23.10;59.40;;;;;;1570300;74;955;-56
2022/10/13 01:39:33;;;;;;;;;;;23.10;59.40;;;;;;1580401;74;1517;-57
2022/10/13 01:41:36;;;;;;;;;;;23.10;59.30;;;;;;1586353;74;1429;-57
2022/10/13 01:43:40;;;;;;;;;;;23.10;59.20;;;;;;1578595;74;1923;-58
2022/10/13 01:45:46;;;;;;;;;;;23.20;58.90;;;;;;1570918;74;1168;-56
2022/10/13 01:47:48;;;;;;;;;;;23.20;58.90;;;;;;1576635;74;835;-56
2022/10/13 01:49:50;;;;;;;;;;;23.20;58.70;;;;;;1571509;74;791;-56
2022/10/13 01:51:52;;;;;;;;;;;23.20;58.80;;;;;;1585335;74;720;-55
2022/10/13 01:53:54;;;;;;;;;;;23.10;58.90;;;;;;1545973;76;745;-52
2022/10/13 01:55:57;;;;;;;;;;;23.20;58.80;;;;;;1549476;75;1733;-57
2022/10/13 01:57:59;;;;;;;;;;;23.20;58.80;;;;;;1550811;76;715;-56
2022/10/13 02:00:02;;;;;;;;;;;23.20;58.70;;;;;;1521519;77;753;-58
2022/10/13 02:02:15;;;;;;;;;;;23.20;59.30;;;;;;1554716;75;661;-55
2022/10/13 02:04:24;;;;;;;;;;;23.10;59.00;;;;;;1504316;77;1946;-59
2022/10/13 02:06:34;;;;;;;;;;;23.20;58.90;;;;;;1529888;76;1171;-58
2022/10/13 02:08:56;;;;;;;;;;;23.10;59.20;;;;;;1540239;75;1981;-56
2022/10/13 02:11:02;;;;;;;;;;;23.20;58.70;;;;;;1532795;75;745;-56
2022/10/13 02:13:04;;;;;;;;;;;23.20;58.60;;;;;;1519275;77;775;-56
2022/10/13 02:15:07;;;;;;;;;;;23.20;58.60;;;;;;1548922;75;1145;-56
2022/10/13 02:17:09;;;;;;;;;;;23.10;58.60;;;;;;1555807;75;782;-56
2022/10/13 02:19:11;;;;;;;;;;;23.10;58.60;;;;;;1551712;75;730;-55
2022/10/13 02:21:13;;;;;;;;;;;23.10;58.80;;;;;;1526476;77;745;-56
2022/10/13 02:23:16;;;;;;;;;;;23.10;58.90;;;;;;1523419;77;1574;-56
2022/10/13 02:25:18;;;;;;;;;;;23.10;59.20;;;;;;1590896;74;1917;-57
2022/10/13 02:27:20;;;;;;;;;;;23.10;59.30;;;;;;1591982;74;802;-56
2022/10/13 02:29:22;;;;;;;;;;;23.00;59.20;;;;;;1596268;74;783;-56
2022/10/13 02:31:24;;;;;;;;;;;23.00;59.30;;;;;;1578966;74;909;-56
2022/10/13 02:33:25;;;;;;;;;;;23.00;59.30;;;;;;1600029;74;666;-56
2022/10/13 02:35:28;;;;;;;;;;;23.00;59.40;;;;;;1595557;74;1137;-56
2022/10/13 02:37:30;;;;;;;;;;;23.00;59.40;;;;;;1594490;74;1564;-55
2022/10/13 02:39:32;;;;;;;;;;;22.90;59.50;;;;;;1577775;74;762;-56
2022/10/13 02:41:34;;;;;;;;;;;22.90;59.50;;;;;;1593659;74;731;-56
2022/10/13 02:43:37;;;;;;;;;;;23.00;59.50;;;;;;1589107;74;789;-52
2022/10/13 02:45:39;;;;;;;;;;;22.90;59.60;;;;;;1584319;74;1913;-56
2022/10/13 02:47:41;;;;;;;;;;;22.90;59.60;;;;;;1597167;74;776;-57
2022/10/13 02:49:43;;;;;;;;;;;22.90;59.60;;;;;;1597947;74;779;-57
2022/10/13 02:51:45;;;;;;;;;;;22.90;59.60;;;;;;1585592;74;1622;-56
2022/10/13 02:53:47;;;;;;;;;;;22.90;59.60;;;;;;1588945;74;813;-54
2022/10/13 02:55:49;;;;;;;;;;;23.00;59.60;;;;;;1587017;74;1084;-53
2022/10/13 02:57:50;;;;;;;;;;;22.90;59.60;;;;;;1597190;74;715;-52
2022/10/13 02:59:52;;;;;;;;;;;22.90;59.40;;;;;;1580707;73;706;-55
2022/10/13 03:01:55;;;;;;;;;;;23.00;59.30;;;;;;1590038;73;743;-56
2022/10/13 03:03:57;;;;;;;;;;;22.90;59.20;;;;;;1583656;74;1912;-53
2022/10/13 03:05:59;;;;;;;;;;;23.00;59.20;;;;;;1575670;74;1582;-57
2022/10/13 03:08:01;;;;;;;;;;;22.90;59.30;;;;;;1578537;74;796;-58
2022/10/13 03:10:03;;;;;;;;;;;23.00;59.40;;;;;;1587236;74;722;-58
2022/10/13 03:12:05;;;;;;;;;;;23.00;59.40;;;;;;1587581;74;703;-57
2022/10/13 03:14:07;;;;;;;;;;;23.00;59.40;;;;;;1595579;74;713;-57
2022/10/13 03:16:09;;;;;;;;;;;22.90;59.40;;;;;;1565682;74;1131;-57
2022/10/13 03:18:11;;;;;;;;;;;22.90;59.50;;;;;;1554657;75;780;-58
2022/10/13 03:20:13;;;;;;;;;;;22.90;59.50;;;;;;1562703;75;1674;-58
2022/10/13 03:22:15;;;;;;;;;;;22.90;59.50;;;;;;1555880;75;813;-58
2022/10/13 03:24:17;;;;;;;;;;;23.00;59.40;;;;;;1561868;75;1934;-57
2022/10/13 03:26:19;;;;;;;;;;;23.00;59.40;;;;;;1555293;75;1186;-57
2022/10/13 03:28:20;;;;;;;;;;;22.90;59.40;;;;;;1544356;75;742;-57
2022/10/13 03:30:22;;;;;;;;;;;22.90;59.40;;;;;;1540955;75;809;-58
2022/10/13 03:32:24;;;;;;;;;;;22.90;59.50;;;;;;1565102;75;792;-57
2022/10/13 03:34:26;;;;;;;;;;;22.90;59.50;;;;;;1557581;75;1562;-57
2022/10/13 03:36:28;;;;;;;;;;;22.90;59.60;;;;;;1567566;75;1133;-58
2022/10/13 03:38:30;;;;;;;;;;;22.90;59.50;;;;;;1562045;75;726;-58
2022/10/13 03:40:32;;;;;;;;;;;22.90;59.50;;;;;;1539011;75;827;-57
2022/10/13 03:42:37;;;;;;;;;;;22.80;59.50;;;;;;1575328;75;748;-58
2022/10/13 03:44:39;;;;;;;;;;;22.80;59.50;;;;;;1539635;75;1937;-58
2022/10/13 03:46:41;;;;;;;;;;;22.80;59.50;;;;;;1562612;75;1154;-57
2022/10/13 03:48:43;;;;;;;;;;;22.80;59.70;;;;;;1549315;75;1578;-58
2022/10/13 03:50:44;;;;;;;;;;;22.80;59.60;;;;;;1560072;75;793;-58
2022/10/13 03:52:46;;;;;;;;;;;22.80;59.80;;;;;;1544211;75;736;-57
2022/10/13 03:54:48;;;;;;;;;;;22.70;59.80;;;;;;1560459;75;1121;-58
2022/10/13 03:56:50;;;;;;;;;;;22.70;59.90;;;;;;1549745;75;870;-58
2022/10/13 03:58:54;;;;;;;;;;;22.70;60.10;;;;;;1554567;75;670;-58
2022/10/13 04:00:56;;;;;;;;;;;22.70;60.10;;;;;;1542614;75;774;-58
2022/10/13 04:02:58;;;;;;;;;;;22.80;60.10;;;;;;1552914;75;1726;-57
2022/10/13 04:05:00;;;;;;;;;;;22.80;60.20;;;;;;1561996;75;1926;-58
2022/10/13 04:07:02;;;;;;;;;;;22.70;60.30;;;;;;1553543;75;776;-58
2022/10/13 04:09:04;;;;;;;;;;;22.70;60.20;;;;;;1551721;75;808;-58
2022/10/13 04:11:07;;;;;;;;;;;22.60;60.30;;;;;;1563950;75;704;-58
2022/10/13 04:13:09;;;;;;;;;;;22.60;60.30;;;;;;1564765;75;1663;-58
2022/10/13 04:15:11;;;;;;;;;;;22.70;60.40;;;;;;1541096;75;1605;-58
2022/10/13 04:17:13;;;;;;;;;;;22.60;60.40;;;;;;1575418;74;1106;-57
2022/10/13 04:19:15;;;;;;;;;;;22.70;60.60;;;;;;1585412;74;794;-57
2022/10/13 04:21:17;;;;;;;;;;;22.60;60.60;;;;;;1588050;74;789;-57
2022/10/13 04:23:19;;;;;;;;;;;22.60;60.60;;;;;;1586622;74;937;-58
2022/10/13 04:25:21;;;;;;;;;;;22.60;60.60;;;;;;1582433;74;1937;-58
2022/10/13 04:27:23;;;;;;;;;;;22.60;60.60;;;;;;1586840;74;772;-57
2022/10/13 04:29:25;;;;;;;;;;;22.60;60.50;;;;;;1582549;74;1526;-58
2022/10/13 04:31:28;;;;;;;;;;;22.60;60.60;;;;;;1581323;74;766;-58
2022/10/13 04:33:30;;;;;;;;;;;22.60;60.70;;;;;;1588217;74;807;-58
2022/10/13 04:35:32;;;;;;;;;;;22.60;60.50;;;;;;1576881;74;1156;-58
2022/10/13 04:37:33;;;;;;;;;;;22.60;60.50;;;;;;1583719;74;799;-58
2022/10/13 04:39:35;;;;;;;;;;;22.60;60.50;;;;;;1573356;74;723;-58
2022/10/13 04:41:37;;;;;;;;;;;22.60;60.40;;;;;;1576940;74;679;-58
2022/10/13 04:43:39;;;;;;;;;;;22.60;60.60;;;;;;1576485;74;1343;-58
2022/10/13 04:45:41;;;;;;;;;;;22.60;60.40;;;;;;1580748;74;1938;-57
2022/10/13 04:47:43;;;;;;;;;;;22.60;60.50;;;;;;1570437;74;795;-57
2022/10/13 04:49:45;;;;;;;;;;;22.60;60.50;;;;;;1582189;74;789;-58
2022/10/13 04:51:46;;;;;;;;;;;22.60;60.50;;;;;;1571950;74;697;-59
2022/10/13 04:53:48;;;;;;;;;;;22.70;60.70;;;;;;1585697;74;663;-57
2022/10/13 04:55:50;;;;;;;;;;;22.80;60.30;;;;;;1546402;75;1139;-55
2022/10/13 04:57:52;;;;;;;;;;;22.80;60.20;;;;;;1553417;75;1507;-58
2022/10/13 04:59:54;;;;;;;;;;;22.80;60.00;;;;;;1524345;76;766;-58
2022/10/13 05:01:56;;;;;;;;;;;22.90;60.10;;;;;;1535674;75;781;-59
2022/10/13 05:03:59;;;;;;;;;;;22.70;60.20;;;;;;1553057;75;734;-53
2022/10/13 05:06:01;;;;;;;;;;;22.90;60.00;;;;;;1554887;75;1947;-58
2022/10/13 05:08:03;;;;;;;;;;;22.90;59.80;;;;;;1545921;75;797;-59
2022/10/13 05:10:05;;;;;;;;;;;22.90;59.80;;;;;;1521161;77;707;-59
2022/10/13 05:12:06;;;;;;;;;;;22.90;59.90;;;;;;1530290;77;1554;-58
2022/10/13 05:14:08;;;;;;;;;;;22.80;59.90;;;;;;1511247;77;781;-58
2022/10/13 05:16:11;;;;;;;;;;;22.80;59.60;;;;;;1522333;77;1085;-58
2022/10/13 05:18:13;;;;;;;;;;;22.80;59.80;;;;;;1510557;77;826;-59
2022/10/13 05:20:16;;;;;;;;;;;22.70;60.20;;;;;;1508819;78;720;-59
2022/10/13 05:22:18;;;;;;;;;;;22.70;60.30;;;;;;1502578;78;768;-57
2022/10/13 05:24:29;;;;;;;;;;;22.60;60.30;;;;;;1508517;78;747;-60
2022/10/13 05:26:27;;;;;;;;;;;22.60;60.40;;;;;;1503376;78;1934;-59
2022/10/13 05:28:28;;;;;;;;;;;22.60;60.40;;;;;;1521518;76;1579;-53
2022/10/13 05:30:30;;;;;;;;;;;22.60;60.20;;;;;;1511553;77;683;-58
2022/10/13 05:32:33;;;;;;;;;;;22.60;60.40;;;;;;1502019;78;728;-59
2022/10/13 05:34:35;;;;;;;;;;;22.60;60.50;;;;;;1530491;76;877;-57
2022/10/13 05:36:37;;;;;;;;;;;22.90;59.90;;;;;;1525823;76;1021;-56
2022/10/13 05:38:39;;;;;;;;;;;23.00;59.50;;;;;;1518623;77;773;-60
2022/10/13 05:40:41;;;;;;;;;;;22.90;59.20;;;;;;1495468;78;1537;-59
2022/10/13 05:42:43;;;;;;;;;;;23.00;58.90;;;;;;1505216;77;787;-60
2022/10/13 05:44:45;;;;;;;;;;;22.90;58.80;;;;;;1513047;77;1065;-59
2022/10/13 05:46:47;;;;;;;;;;;22.90;59.10;;;;;;1514069;78;1942;-58
2022/10/13 05:48:49;;;;;;;;;;;22.80;58.70;;;;;;1511457;78;677;-58
2022/10/13 05:50:51;;;;;;;;;;;22.90;58.80;;;;;;1509595;77;785;-56
2022/10/13 05:52:53;;;;;;;;;;;22.90;58.60;;;;;;1513421;77;690;-54
2022/10/13 05:54:58;;;;;;;;;;;22.80;58.30;;;;;;1515927;77;1679;-58
2022/10/13 05:57:01;;;;;;;;;;;22.80;58.40;;;;;;1513257;77;707;-58
2022/10/13 05:59:04;;;;;;;;;;;22.80;58.40;;;;;;1507312;78;725;-56
2022/10/13 06:01:08;;;;;;;;;;;22.70;58.50;;;;;;1505853;77;674;-58
2022/10/13 06:03:13;;;;;;;;;;;22.70;58.40;;;;;;1510868;78;1018;-56
2022/10/13 06:05:16;;;;;;;;;;;22.60;58.40;;;;;;1512263;77;1951;-58
2022/10/13 06:07:18;;;;;;;;;;;22.70;58.40;;;;;;1516955;77;717;-58
2022/10/13 06:09:20;;;;;;;;;;;22.60;58.30;;;;;;1517260;77;1667;-57
2022/10/13 06:11:22;;;;;;;;;;;22.60;58.30;;;;;;1504878;77;839;-54
2022/10/13 06:13:24;;;;;;;;;;;22.60;58.30;;;;;;1513827;77;752;-58
2022/10/13 06:15:26;;;;;;;;;;;22.60;58.40;;;;;;1510976;77;1108;-58
2022/10/13 06:17:27;;;;;;;;;;;22.60;58.30;;;;;;1520093;77;1078;-58
2022/10/13 06:19:29;;;;;;;;;;;22.60;58.20;;;;;;1520225;76;762;-58
2022/10/13 06:21:33;;;;;;;;;;;22.60;58.30;;;;;;1517477;76;776;-57
2022/10/13 06:23:37;;;;;;;;;;;22.60;58.30;;;;;;1516775;77;1682;-55
2022/10/13 06:25:40;;;;;;;;;;;22.50;58.30;;;;;;1520235;76;1932;-58
2022/10/13 06:27:42;;;;;;;;;;;22.60;58.20;;;;;;1530249;75;1910;-58
2022/10/13 06:29:44;;;;;;;;;;;22.50;58.10;;;;;;1547011;75;711;-57
2022/10/13 06:31:46;;;;;;;;;;;22.60;58.10;;;;;;1538053;75;928;-57
2022/10/13 06:33:48;;;;;;;;;;;22.50;58.10;;;;;;1531770;77;656;-58
2022/10/13 06:35:51;;;;;;;;;;;22.50;58.10;;;;;;1536933;75;1606;-55
2022/10/13 06:37:53;;;;;;;;;;;22.60;58.00;;;;;;1527115;75;767;-56
2022/10/13 06:39:54;;;;;;;;;;;22.50;58.00;;;;;;1515054;76;685;-57
2022/10/13 06:41:56;;;;;;;;;;;22.50;58.00;;;;;;1511738;76;698;-55
2022/10/13 06:43:58;;;;;;;;;;;22.60;58.00;;;;;;1526844;77;793;-58
2022/10/13 06:46:00;;;;;;;;;;;22.50;58.00;;;;;;1514566;76;1966;-58
2022/10/13 06:48:02;;;;;;;;;;;22.50;58.00;;;;;;1514451;76;787;-58
2022/10/13 06:50:04;;;;;;;;;;;22.50;58.00;;;;;;1514015;76;1503;-58
2022/10/13 06:52:06;;;;;;;;;;;22.50;58.00;;;;;;1520732;77;741;-56
2022/10/13 06:54:08;;;;;;;;;;;22.50;58.00;;;;;;1578949;73;751;-58
2022/10/13 06:56:10;;;;;;;;;;;22.50;58.00;;;;;;1586403;73;1120;-55
2022/10/13 06:58:12;;;;;;;;;;;22.50;58.00;;;;;;1580945;74;759;-55
2022/10/13 07:00:13;;;;;;;;;;;22.50;58.00;;;;;;1584877;73;747;-58
2022/10/13 07:02:15;;;;;;;;;;;22.50;57.90;;;;;;1580282;73;670;-57
2022/10/13 07:04:17;;;;;;;;;;;22.50;58.00;;;;;;1588576;73;1518;-58
2022/10/13 07:06:19;;;;;;;;;;;22.50;58.00;;;;;;1581058;73;1936;-58
2022/10/13 07:08:21;;;;;;;;;;;22.50;57.90;;;;;;1578692;73;813;-58
2022/10/13 07:10:23;;;;;;;;;;;22.50;57.90;;;;;;1569350;73;778;-58
2022/10/13 07:12:26;;;;;;;;;;;22.50;57.90;;;;;;1587423;73;870;-58
2022/10/13 07:14:27;;;;;;;;;;;22.50;57.90;;;;;;1584475;73;779;-58
2022/10/13 07:16:29;;;;;;;;;;;22.50;57.80;;;;;;1579941;73;1078;-54
2022/10/13 07:18:31;;;;;;;;;;;22.50;57.80;;;;;;1582820;73;1505;-57
2022/10/13 07:20:33;;;;;;;;;;;22.50;57.80;;;;;;1586840;73;732;-54
2022/10/13 07:22:35;;;;;;;;;;;22.50;57.80;;;;;;1584212;73;721;-56
2022/10/13 07:24:37;;;;;;;;;;;22.50;57.80;;;;;;1577014;74;781;-58
2022/10/13 07:26:39;;;;;;;;;;;22.50;57.70;;;;;;1581696;73;1931;-58
2022/10/13 07:28:41;;;;;;;;;;;22.50;57.80;;;;;;1587807;73;731;-58
2022/10/13 07:30:43;;;;;;;;;;;22.50;57.80;;;;;;1583120;74;627;-58
2022/10/13 07:32:45;;;;;;;;;;;22.50;57.70;;;;;;1587743;74;1557;-57
2022/10/13 07:34:47;;;;;;;;;;;22.50;57.80;;;;;;1579721;73;1132;-57
2022/10/13 07:36:49;;;;;;;;;;;22.50;57.70;;;;;;1575160;74;711;-56
2022/10/13 07:38:51;;;;;;;;;;;22.50;57.70;;;;;;1580622;74;741;-54
2022/10/13 07:40:53;;;;;;;;;;;22.40;57.50;;;;;;1587310;73;808;-55
2022/10/13 07:42:55;;;;;;;;;;;22.50;57.60;;;;;;1576125;73;795;-57
2022/10/13 07:44:57;;;;;;;;;;;22.40;57.50;;;;;;1577990;73;1124;-54
2022/10/13 07:46:59;;;;;;;;;;;22.40;57.50;;;;;;1587637;73;1914;-58
2022/10/13 07:49:01;;;;;;;;;;;22.50;57.70;;;;;;1572949;73;792;-58
2022/10/13 07:51:06;;;;;;;;;;;22.40;57.60;;;;;;1582903;73;777;-58
2022/10/13 07:53:08;;;;;;;;;;;22.50;57.60;;;;;;1580236;74;854;-58
2022/10/13 07:55:10;;;;;;;;;;;22.50;57.60;;;;;;1590579;73;1135;-54
2022/10/13 07:57:12;;;;;;;;;;;22.50;57.60;;;;;;1586870;73;922;-58
2022/10/13 07:59:14;;;;;;;;;;;22.50;57.50;;;;;;1588344;73;716;-58
2022/10/13 08:01:16;;;;;;;;;;;22.40;57.40;;;;;;1580876;73;1514;-54
2022/10/13 08:03:18;;;;;;;;;;;22.50;57.60;;;;;;1592484;73;788;-58
2022/10/13 08:05:19;;;;;;;;;;;22.50;57.50;;;;;;1580390;73;1124;-58
2022/10/13 08:07:21;;;;;;;;;;;22.50;57.50;;;;;;1589416;73;1932;-58
2022/10/13 08:09:24;;;;;;;;;;;22.50;57.40;;;;;;1582366;73;787;-55
2022/10/13 08:11:26;;;;;;;;;;;22.50;57.40;;;;;;1579631;73;792;-57
2022/10/13 08:13:28;;;;;;;;;;;22.50;57.30;;;;;;1573974;73;685;-58
2022/10/13 08:15:30;;;;;;;;;;;22.50;57.40;;;;;;1576095;73;1545;-56
2022/10/13 08:17:32;;;;;;;;;;;22.50;57.40;;;;;;1575730;73;725;-55
2022/10/13 08:19:34;;;;;;;;;;;22.50;57.40;;;;;;1571088;73;1051;-57
2022/10/13 08:21:37;;;;;;;;;;;22.50;57.40;;;;;;1578122;73;766;-54
2022/10/13 08:23:39;;;;;;;;;;;22.50;57.40;;;;;;1578216;73;757;-58
2022/10/13 08:25:41;;;;;;;;;;;22.50;57.30;;;;;;1583774;73;1204;-58
2022/10/13 08:27:43;;;;;;;;;;;22.50;57.30;;;;;;1587250;74;1918;-57
2022/10/13 08:29:45;;;;;;;;;;;22.50;57.30;;;;;;1583455;74;1524;-56
2022/10/13 08:31:47;;;;;;;;;;;22.50;57.20;;;;;;1572521;73;677;-56
2022/10/13 08:33:51;;;;;;;;;;;22.50;57.20;;;;;;1587374;73;738;-54
2022/10/13 08:35:53;;;;;;;;;;;22.60;57.20;;;;;;1582320;73;1144;-58
2022/10/13 08:37:54;;;;;;;;;;;22.50;57.20;;;;;;1581334;73;809;-58
2022/10/13 08:39:56;;;;;;;;;;;22.50;57.10;;;;;;1583003;73;772;-58
2022/10/13 08:41:58;;;;;;;;;;;22.50;57.10;;;;;;1585495;73;748;-58
2022/10/13 08:44:07;;;;;;;;;;;22.50;57.10;;;;;;1582718;73;1697;-55
2022/10/13 08:46:09;;;;;;;;;;;22.50;57.10;;;;;;1582275;73;1933;-58
2022/10/13 08:48:13;;;;;;;;;;;22.60;57.20;;;;;;1578029;73;758;-58
2022/10/13 08:50:16;;;;;;;;;;;22.50;57.10;;;;;;1571862;73;771;-57
2022/10/13 08:52:19;;;;;;;;;;;22.50;57.10;;;;;;1584393;73;708;-57
2022/10/13 08:54:21;;;;;;;;;;;22.50;57.10;;;;;;1576828;73;815;-54
2022/10/13 08:56:24;;;;;;;;;;;22.60;57.10;;;;;;1582533;73;1445;-51
2022/10/13 08:58:30;;;;;;;;;;;22.60;56.80;;;;;;1578347;73;1808;-57
2022/10/13 09:00:32;;;;;;;;;;;22.50;56.60;;;;;;1581129;74;733;-56
2022/10/13 09:02:34;;;;;;;;;;;22.50;56.50;;;;;;1587484;73;739;-55
2022/10/13 09:04:38;;;;;;;;;;;22.40;56.30;;;;;;1579409;73;769;-53
2022/10/13 09:06:41;;;;;;;;;;;22.40;56.30;;;;;;1583889;73;1945;-52
2022/10/13 09:08:53;;;;;;;;;;;22.40;56.30;;;;;;1584732;73;1903;-54
2022/10/13 09:10:55;;;;;;;;;;;22.40;56.20;;;;;;1574082;74;1555;-56
2022/10/13 09:12:59;;;;;;;;;;;22.30;56.10;;;;;;1586189;73;578;-56
2022/10/13 09:15:02;;;;;;;;;;;22.30;56.00;;;;;;1585204;73;1494;-52
2022/10/13 09:17:14;;;;;;;;;;;22.30;56.00;;;;;;1574201;73;710;-56
2022/10/13 09:19:29;;;;;;;;;;;22.30;56.00;;;;;;1576057;74;1114;-56
2022/10/13 09:21:31;;;;;;;;;;;22.20;55.70;;;;;;1554753;75;743;-54
2022/10/13 09:23:32;;;;;;;;;;;22.20;55.70;;;;;;1563467;75;724;-56
2022/10/13 09:25:41;;;;;;;;;;;22.20;55.60;;;;;;1542621;75;1429;-57
2022/10/13 09:27:44;;;;;;;;;;;22.20;55.60;;;;;;1545814;75;1934;-55
2022/10/13 09:29:46;;;;;;;;;;;22.20;55.50;;;;;;1540414;75;751;-56
2022/10/13 09:31:48;;;;;;;;;;;22.10;55.60;;;;;;1548806;75;689;-55
2022/10/13 09:33:59;;;;;;;;;;;22.10;55.40;;;;;;1558856;75;740;-55
2022/10/13 09:36:05;;;;;;;;;;;22.10;55.50;;;;;;1547862;75;1174;-56
2022/10/13 09:38:08;;;;;;;;;;;22.10;55.40;;;;;;1553442;75;901;-56
2022/10/13 09:40:14;;;;;;;;;;;22.10;55.40;;;;;;1540511;75;1902;-56
2022/10/13 09:42:19;;;;;;;;;;;22.10;55.40;;;;;;1542528;75;648;-57
2022/10/13 09:44:27;;;;;;;;;;;22.10;55.30;;;;;;1550604;74;963;-55
2022/10/13 09:46:30;;;;;;;;;;;22.10;55.20;;;;;;1545893;74;1935;-56
2022/10/13 09:48:33;;;;;;;;;;;22.10;55.20;;;;;;1548260;74;745;-56
2022/10/13 09:50:34;;;;;;;;;;;22.00;55.10;;;;;;1545816;75;792;-56
2022/10/13 09:52:36;;;;;;;;;;;22.00;55.10;;;;;;1551192;75;704;-56
2022/10/13 09:54:46;;;;;;;;;;;22.00;55.10;;;;;;1547757;75;725;-56
2022/10/13 09:56:48;;;;;;;;;;;22.00;55.00;;;;;;1550756;75;721;-51
2022/10/13 09:58:52;;;;;;;;;;;22.00;55.00;;;;;;1552554;75;728;-55
2022/10/13 10:00:53;;;;;;;;;;;22.00;54.90;;;;;;1550798;75;664;-55
2022/10/13 10:02:57;;;;;;;;;;;22.10;54.90;;;;;;1547346;75;737;-56
2022/10/13 10:05:00;;;;;;;;;;;22.10;54.90;;;;;;1539063;75;1154;-56
2022/10/13 10:07:04;;;;;;;;;;;22.00;54.70;;;;;;1551945;75;1943;-53
2022/10/13 10:09:16;;;;;;;;;;;22.00;54.70;;;;;;1552939;75;1628;-53
2022/10/13 10:11:20;;;;;;;;;;;22.00;54.70;;;;;;1558082;75;723;-55
2022/10/13 10:13:23;;;;;;;;;;;22.10;54.80;;;;;;1548917;75;819;-55
2022/10/13 10:15:27;;;;;;;;;;;22.00;54.70;;;;;;1554904;75;1173;-52
2022/10/13 10:17:42;;;;;;;;;;;22.00;54.70;;;;;;1548171;75;764;-53
2022/10/13 10:19:49;;;;;;;;;;;22.00;54.70;;;;;;1559089;74;1135;-51
2022/10/13 10:22:02;;;;;;;;;;;22.00;54.70;;;;;;1582911;73;1942;-52
2022/10/13 10:24:06;;;;;;;;;;;22.00;54.60;;;;;;1572193;73;1583;-54
2022/10/13 10:26:13;;;;;;;;;;;22.00;54.60;;;;;;1586898;73;1130;-54
2022/10/13 10:28:16;;;;;;;;;;;22.00;54.60;;;;;;1582481;73;1935;-54
2022/10/13 10:30:18;;;;;;;;;;;22.00;54.70;;;;;;1579785;74;837;-52
2022/10/13 10:32:38;;;;;;;;;;;22.00;54.70;;;;;;1587544;74;745;-52
2022/10/13 10:34:58;;;;;;;;;;;22.00;54.60;;;;;;1580156;73;738;-54
2022/10/13 10:37:05;;;;;;;;;;;22.00;54.60;;;;;;1588304;73;721;-55
2022/10/13 10:39:08;;;;;;;;;;;22.00;54.70;;;;;;1588087;74;778;-54
2022/10/13 10:41:15;;;;;;;;;;;22.00;54.60;;;;;;1587849;74;838;-52
2022/10/13 10:43:21;;;;;;;;;;;22.00;54.70;;;;;;1564193;73;1700;-54
2022/10/13 10:45:25;;;;;;;;;;;22.00;54.60;;;;;;1588315;74;1113;-55
2022/10/13 10:47:27;;;;;;;;;;;22.00;54.60;;;;;;1592129;73;1939;-55
2022/10/13 10:49:30;;;;;;;;;;;22.00;54.60;;;;;;1583366;74;1492;-55
2022/10/13 10:51:33;;;;;;;;;;;22.00;54.60;;;;;;1587748;74;787;-51
2022/10/13 10:53:53;;;;;;;;;;;22.00;54.60;;;;;;1585719;73;676;-54
2022/10/13 10:55:56;;;;;;;;;;;22.00;54.60;;;;;;1591888;73;1232;-55
2022/10/13 10:58:06;;;;;;;;;;;22.00;54.50;;;;;;1586747;73;1842;-52
2022/10/13 11:00:21;;;;;;;;;;;22.00;54.50;;;;;;1576805;74;796;-53
2022/10/13 11:02:27;;;;;;;;;;;22.00;54.40;;;;;;1579200;73;701;-53
2022/10/13 11:04:34;;;;;;;;;;;22.00;54.40;;;;;;1580793;74;1920;-52
2022/10/13 11:06:36;;;;;;;;;;;22.00;54.40;;;;;;1585905;73;1131;-56
2022/10/13 11:08:39;;;;;;;;;;;22.00;54.40;;;;;;1588943;73;1967;-56
2022/10/13 11:10:41;;;;;;;;;;;22.00;54.40;;;;;;1589824;73;812;-52
2022/10/13 11:12:54;;;;;;;;;;;22.00;54.40;;;;;;1582765;73;743;-56
2022/10/13 11:15:04;;;;;;;;;;;22.00;54.40;;;;;;1579223;73;1136;-52
2022/10/13 11:17:08;;;;;;;;;;;22.00;54.30;;;;;;1589545;73;1268;-55
2022/10/13 11:19:28;;;;;;;;;;;22.00;54.30;;;;;;1589891;73;757;-56
2022/10/13 11:21:48;;;;;;;;;;;22.00;54.30;;;;;;1573357;73;1128;-55
2022/10/13 11:23:50;;;;;;;;;;;22.00;54.30;;;;;;1583466;73;650;-56
2022/10/13 11:25:52;;;;;;;;;;;21.90;54.30;;;;;;1595220;73;1185;-56
2022/10/13 11:27:54;;;;;;;;;;;21.90;54.30;;;;;;1550010;75;1939;-55
2022/10/13 11:29:57;;;;;;;;;;;21.90;54.20;;;;;;1582910;73;764;-56
2022/10/13 11:31:58;;;;;;;;;;;22.00;54.20;;;;;;1581422;73;1484;-54
2022/10/13 11:34:01;;;;;;;;;;;21.90;54.20;;;;;;1587419;74;733;-55
2022/10/13 11:36:21;;;;;;;;;;;22.00;54.20;;;;;;1576231;74;1156;-56
2022/10/13 11:38:24;;;;;;;;;;;22.00;54.20;;;;;;1575581;73;877;-56
2022/10/13 11:40:37;;;;;;;;;;;21.90;54.10;;;;;;1569971;73;1904;-54
2022/10/13 11:42:44;;;;;;;;;;;22.00;54.10;;;;;;1579745;73;710;-55
2022/10/13 11:44:56;;;;;;;;;;;22.00;54.00;;;;;;1583373;74;1729;-56
2022/10/13 11:47:16;;;;;;;;;;;22.00;54.00;;;;;;1580740;73;1779;-56
2022/10/13 11:49:26;;;;;;;;;;;22.00;54.00;;;;;;1576596;73;754;-52
2022/10/13 11:51:35;;;;;;;;;;;21.90;54.00;;;;;;1582368;74;789;-56
2022/10/13 11:53:42;;;;;;;;;;;22.00;53.90;;;;;;1580172;74;1723;-53
2022/10/13 11:55:53;;;;;;;;;;;21.90;54.00;;;;;;1578622;74;1143;-54
2022/10/13 11:58:08;;;;;;;;;;;21.90;53.90;;;;;;1585652;74;811;-56
2022/10/13 12:00:14;;;;;;;;;;;21.90;53.90;;;;;;1581501;74;1568;-51
2022/10/13 12:02:16;;;;;;;;;;;21.90;53.90;;;;;;1583086;74;762;-56
2022/10/13 12:04:19;;;;;;;;;;;21.90;53.90;;;;;;1579031;74;760;-55
2022/10/13 12:06:35;;;;;;;;;;;21.90;53.80;;;;;;1585487;74;1167;-55
2022/10/13 12:08:37;;;;;;;;;;;21.90;53.80;;;;;;1582576;74;1903;-56
2022/10/13 12:10:39;;;;;;;;;;;21.90;53.90;;;;;;1579755;74;813;-55
2022/10/13 12:12:43;;;;;;;;;;;21.90;53.80;;;;;;1580021;74;696;-56
2022/10/13 12:14:46;;;;;;;;;;;22.00;53.90;;;;;;1579750;74;1832;-53
2022/10/13 12:16:54;;;;;;;;;;;21.90;53.80;;;;;;1579786;74;676;-55